createdAt,value
2023-02-11T08:59:20.717Z,-2.76
2023-02-11T09:01:47.883Z,-2.43
2023-02-11T09:04:14.972Z,-2.12
2023-02-11T09:06:41.831Z,-1.87
2023-02-11T09:09:14.828Z,-1.62
2023-02-11T09:11:43.375Z,-1.40
2023-02-11T09:14:19.934Z,-1.22
2023-02-11T09:16:47.834Z,-1.06
2023-02-11T09:19:14.491Z,-0.99
2023-02-11T09:21:41.180Z,-0.80
2023-02-11T09:24:08.024Z,-0.64
2023-02-11T09:26:37.241Z,-0.44
2023-02-11T09:29:05.350Z,-0.34
2023-02-11T09:31:34.017Z,-0.16
2023-02-11T09:34:04.780Z,-0.06
2023-02-11T09:36:37.771Z,-0.07
2023-02-11T09:39:07.723Z,0.09
2023-02-11T09:41:40.432Z,0.20
2023-02-11T09:44:16.691Z,0.28
2023-02-11T09:46:47.635Z,0.39
2023-02-11T09:49:23.476Z,0.52
2023-02-11T09:51:58.161Z,0.64
2023-02-11T09:54:55.965Z,0.66
2023-02-11T09:57:29.167Z,0.76
2023-02-11T10:00:19.317Z,0.79
2023-02-11T10:02:58.426Z,0.87
2023-02-11T10:05:32.166Z,1.05
2023-02-11T10:08:20.804Z,1.08
2023-02-11T10:10:58.367Z,1.08
2023-02-11T10:13:52.879Z,1.24
2023-02-11T10:16:43.108Z,1.26
2023-02-11T10:19:34.939Z,1.34
2023-02-11T10:22:07.623Z,1.46
2023-02-11T10:24:37.750Z,1.51
2023-02-11T10:27:17.909Z,1.63
2023-02-11T10:29:52.509Z,1.66
2023-02-11T10:32:41.312Z,1.73
2023-02-11T10:35:18.520Z,1.81
2023-02-11T10:37:45.421Z,1.85
2023-02-11T10:40:32.092Z,1.89
2023-02-11T10:43:03.338Z,1.91
2023-02-11T10:45:37.461Z,1.98
2023-02-11T10:48:06.610Z,2.07
2023-02-11T10:50:35.262Z,2.07
2023-02-11T10:53:16.316Z,2.15
2023-02-11T10:55:54.880Z,2.05
2023-02-11T10:58:45.552Z,2.12
2023-02-11T11:01:23.794Z,2.13
2023-02-11T11:03:52.798Z,2.16
2023-02-11T11:06:34.158Z,2.28
2023-02-11T11:09:01.411Z,2.20
2023-02-11T11:11:28.281Z,2.11
2023-02-11T11:14:03.381Z,2.04
2023-02-11T11:16:34.650Z,2.06
2023-02-11T11:19:07.788Z,2.15
2023-02-11T11:21:41.329Z,2.22
2023-02-11T11:24:29.596Z,2.07
2023-02-11T11:27:01.130Z,1.95
2023-02-11T11:29:47.530Z,1.81
2023-02-11T11:32:22.369Z,1.85
2023-02-11T11:34:52.173Z,1.76
2023-02-11T11:37:26.964Z,1.82
2023-02-11T11:39:58.362Z,1.90
2023-02-11T11:42:27.316Z,2.09
2023-02-11T11:44:59.202Z,2.27
2023-02-11T11:48:07.307Z,2.43
2023-02-11T11:50:42.124Z,2.45
2023-02-11T11:53:27.586Z,2.39
2023-02-11T11:56:12.376Z,2.42
2023-02-11T11:58:39.183Z,2.44
2023-02-11T12:01:29.686Z,2.41
2023-02-11T12:03:56.252Z,2.47
2023-02-11T12:06:45.544Z,2.65
2023-02-11T12:09:16.836Z,2.79
2023-02-11T12:12:01.862Z,2.89
2023-02-11T12:14:28.576Z,3.01
2023-02-11T12:17:14.017Z,3.04
2023-02-11T12:19:56.913Z,3.10
2023-02-11T12:22:45.703Z,3.22
2023-02-11T12:25:31.440Z,3.26
2023-02-11T12:28:44.928Z,3.22
2023-02-11T12:31:28.249Z,3.25
2023-02-11T12:34:16.783Z,3.24
2023-02-11T12:37:02.923Z,3.25
2023-02-11T12:39:40.987Z,3.13
2023-02-11T12:42:44.744Z,3.24
2023-02-11T12:45:12.330Z,3.19
2023-02-11T12:47:50.772Z,3.27
2023-02-11T12:50:50.557Z,3.29
2023-02-11T12:53:40.091Z,3.30
2023-02-11T12:56:31.843Z,3.34
2023-02-11T12:59:02.299Z,3.34
2023-02-11T13:01:42.382Z,3.35
2023-02-11T13:04:20.014Z,3.28
2023-02-11T13:06:54.430Z,3.25
2023-02-11T13:09:30.779Z,3.05
2023-02-11T13:12:22.523Z,3.08
2023-02-11T13:14:52.906Z,2.99
2023-02-11T13:17:47.337Z,2.97
2023-02-11T13:20:32.500Z,3.08
2023-02-11T13:23:19.922Z,3.10
2023-02-11T13:26:27.154Z,3.14
2023-02-11T13:29:12.231Z,3.10
2023-02-11T13:31:39.094Z,3.03
2023-02-11T13:34:25.269Z,2.95
2023-02-11T13:36:57.460Z,2.96
2023-02-11T13:39:24.866Z,2.94
2023-02-11T13:42:01.980Z,2.90
2023-02-11T13:44:28.917Z,2.82
2023-02-11T13:47:01.522Z,2.86
2023-02-11T13:49:40.718Z,2.81
2023-02-11T13:52:46.402Z,2.80
2023-02-11T13:55:23.151Z,2.65
2023-02-11T13:58:08.566Z,2.65
2023-02-11T14:00:35.304Z,2.65
2023-02-11T14:03:29.846Z,2.63
2023-02-11T14:06:46.830Z,2.53
2023-02-11T14:09:13.450Z,2.56
2023-02-11T14:11:44.749Z,2.55
2023-02-11T14:14:18.412Z,2.49
2023-02-11T14:17:00.981Z,2.42
2023-02-11T14:19:45.725Z,2.29
2023-02-11T14:22:18.842Z,2.29
2023-02-11T14:24:54.765Z,2.22
2023-02-11T14:27:31.864Z,2.14
2023-02-11T14:30:15.382Z,2.13
2023-02-11T14:32:57.173Z,2.01
2023-02-11T14:35:41.184Z,1.87
2023-02-11T14:38:37.579Z,1.85
2023-02-11T14:41:26.374Z,1.71
2023-02-11T14:44:01.376Z,1.58
2023-02-11T14:51:06.215Z,1.35
2023-02-11T14:53:37.416Z,1.04
2023-02-11T14:56:20.001Z,0.98
2023-02-11T14:58:49.225Z,0.79
2023-02-11T15:01:40.832Z,0.69
2023-02-11T15:04:33.171Z,0.56
2023-02-11T15:07:08.399Z,0.40
2023-02-11T15:09:46.213Z,0.30
2023-02-11T15:12:30.911Z,0.16
2023-02-11T15:15:00.566Z,-0.09
2023-02-11T15:17:32.123Z,-0.30
2023-02-11T15:20:01.870Z,-0.35
2023-02-11T15:22:33.250Z,-0.43
2023-02-11T15:25:10.675Z,-0.44
2023-02-11T15:27:42.706Z,-0.57
2023-02-11T15:30:21.547Z,-0.55
2023-02-11T15:33:00.515Z,-0.61
2023-02-11T15:35:37.153Z,-0.71
2023-02-11T15:38:04.696Z,-0.78
2023-02-11T15:40:35.883Z,-0.87
2023-02-11T15:43:08.010Z,-0.94
2023-02-11T15:45:36.253Z,-0.93
2023-02-11T15:48:42.149Z,-1.03
2023-02-11T15:51:21.817Z,-1.16
2023-02-11T15:53:58.492Z,-1.24
2023-02-11T15:56:29.826Z,-1.25
2023-02-11T15:59:02.723Z,-1.34
2023-02-11T16:01:35.790Z,-1.37
2023-02-11T16:04:04.813Z,-1.57
2023-02-11T16:06:42.418Z,-1.60
2023-02-11T16:09:10.177Z,-1.65
2023-02-11T16:11:59.064Z,-1.74
2023-02-11T16:14:34.779Z,-1.79
2023-02-11T16:17:22.448Z,-1.76
2023-02-11T16:19:50.995Z,-1.77
2023-02-11T16:22:20.786Z,-1.93
2023-02-11T16:24:50.022Z,-2.11
2023-02-11T16:27:30.568Z,-2.12
2023-02-11T16:29:58.369Z,-2.20
2023-02-11T16:32:30.137Z,-2.25
2023-02-11T16:34:58.773Z,-2.31
2023-02-11T16:37:26.976Z,-2.39
2023-02-11T16:39:54.603Z,-2.53
2023-02-11T16:42:21.547Z,-2.53
2023-02-11T16:44:48.758Z,-2.61
2023-02-11T16:47:26.685Z,-2.70
2023-02-11T16:49:54.488Z,-2.81
2023-02-11T16:52:25.532Z,-2.76
2023-02-11T16:54:52.760Z,-2.78
2023-02-11T16:57:28.771Z,-2.89
2023-02-11T16:59:57.056Z,-2.83
2023-02-11T17:02:30.839Z,-2.88
2023-02-11T17:05:09.132Z,-2.95
2023-02-11T17:07:36.075Z,-2.93
2023-02-11T17:10:02.998Z,-3.11
2023-02-11T17:12:29.802Z,-3.13
2023-02-11T17:14:56.687Z,-3.15
2023-02-11T17:17:23.963Z,-3.20
2023-02-11T17:19:51.488Z,-3.19
2023-02-11T17:22:19.151Z,-3.27
2023-02-11T17:24:46.153Z,-3.25
2023-02-11T17:27:14.154Z,-3.24
2023-02-11T17:29:41.151Z,-3.34
2023-02-11T17:32:07.988Z,-3.46
2023-02-11T17:34:34.839Z,-3.50
2023-02-11T17:37:07.740Z,-3.55
2023-02-11T17:39:38.560Z,-3.51
2023-02-11T17:42:06.540Z,-3.55
2023-02-11T17:44:33.451Z,-3.64
2023-02-11T17:47:00.413Z,-3.62
2023-02-11T17:49:27.716Z,-3.64
2023-02-11T17:51:54.495Z,-3.67
2023-02-11T17:54:21.288Z,-3.74
2023-02-11T17:56:50.876Z,-3.81
2023-02-11T17:59:18.067Z,-3.77
2023-02-11T18:01:45.372Z,-3.74
2023-02-11T18:04:16.282Z,-3.75
2023-02-11T18:07:02.388Z,-3.84
2023-02-11T18:09:29.194Z,-3.86
2023-02-11T18:11:56.004Z,-3.84
2023-02-11T18:14:22.993Z,-3.98
2023-02-11T18:16:53.707Z,-4.03
2023-02-11T18:19:20.777Z,-3.95
2023-02-11T18:21:50.312Z,-4.07
2023-02-11T18:24:17.432Z,-3.98
2023-02-11T18:26:44.194Z,-3.98
2023-02-11T18:29:11.039Z,-4.08
2023-02-11T18:31:38.546Z,-4.21
2023-02-11T18:34:07.666Z,-4.31
2023-02-11T18:36:34.467Z,-4.41
2023-02-11T18:39:01.206Z,-4.39
2023-02-11T18:41:31.313Z,-4.28
2023-02-11T18:43:58.943Z,-4.28
2023-02-11T18:46:27.966Z,-4.32
2023-02-11T18:48:56.263Z,-4.48
2023-02-11T18:51:25.062Z,-4.46
2023-02-11T18:53:51.811Z,-4.48
2023-02-11T18:56:27.966Z,-4.39
2023-02-11T18:58:56.324Z,-4.46
2023-02-11T19:01:27.399Z,-4.44
2023-02-11T19:03:56.496Z,-4.49
2023-02-11T19:06:26.568Z,-4.50
2023-02-11T19:09:00.316Z,-4.46
2023-02-11T19:11:47.303Z,-4.53
2023-02-11T19:14:16.380Z,-4.56
2023-02-11T19:16:46.279Z,-4.57
2023-02-11T19:19:14.703Z,-4.57
2023-02-11T19:21:45.931Z,-4.62
2023-02-11T19:24:15.678Z,-4.64
2023-02-11T19:26:42.847Z,-4.71
2023-02-11T19:29:09.601Z,-4.76
2023-02-11T19:31:36.397Z,-4.71
2023-02-11T19:34:04.519Z,-4.70
2023-02-11T19:36:31.613Z,-4.68
2023-02-11T19:39:02.549Z,-4.72
2023-02-11T19:41:30.833Z,-4.71
2023-02-11T19:43:57.904Z,-4.73
2023-02-11T19:46:29.767Z,-4.75
2023-02-11T19:48:56.775Z,-4.98
2023-02-11T19:51:23.519Z,-5.16
2023-02-11T19:53:54.199Z,-5.21
2023-02-11T19:56:21.086Z,-5.17
2023-02-11T19:58:48.396Z,-5.24
2023-02-11T20:01:17.966Z,-5.34
2023-02-11T20:03:47.811Z,-5.30
2023-02-11T20:06:17.295Z,-5.25
2023-02-11T20:08:44.483Z,-5.23
2023-02-11T20:11:16.989Z,-5.29
2023-02-11T20:13:44.653Z,-5.25
2023-02-11T20:16:16.686Z,-5.26
2023-02-11T20:18:44.606Z,-5.23
2023-02-11T20:21:22.413Z,-5.39
2023-02-11T20:23:50.290Z,-5.46
2023-02-11T20:26:18.454Z,-5.43
2023-02-11T20:28:46.718Z,-5.46
2023-02-11T20:31:14.262Z,-5.47
2023-02-11T20:33:41.912Z,-5.47
2023-02-11T20:36:12.823Z,-5.54
2023-02-11T20:38:39.756Z,-5.80
2023-02-11T20:41:13.961Z,-5.78
2023-02-11T20:43:45.838Z,-5.91
2023-02-11T20:46:14.921Z,-5.81
2023-02-11T20:48:42.466Z,-5.78
2023-02-11T20:51:11.836Z,-5.76
2023-02-11T20:53:40.618Z,-5.71
2023-02-11T20:56:10.269Z,-5.75
2023-02-11T20:58:38.265Z,-5.65
2023-02-11T21:01:14.129Z,-5.82
2023-02-11T21:03:44.040Z,-5.78
2023-02-11T21:06:11.852Z,-6.05
2023-02-11T21:08:38.624Z,-5.96
2023-02-11T21:11:08.897Z,-6.06
2023-02-11T21:13:36.883Z,-6.11
2023-02-11T21:16:04.781Z,-6.15
2023-02-11T21:18:31.486Z,-6.05
2023-02-11T21:20:59.052Z,-6.16
2023-02-11T21:23:26.580Z,-6.13
2023-02-11T21:25:54.527Z,-6.07
2023-02-11T21:28:26.328Z,-6.09
2023-02-11T21:30:54.429Z,-6.00
2023-02-11T21:33:22.576Z,-5.91
2023-02-11T21:35:49.625Z,-6.05
2023-02-11T21:38:16.898Z,-6.10
2023-02-11T21:40:43.808Z,-6.17
2023-02-11T21:43:10.542Z,-6.10
2023-02-11T21:45:43.912Z,-5.97
2023-02-11T21:48:11.526Z,-5.99
2023-02-11T21:50:43.714Z,-5.94
2023-02-11T21:53:11.807Z,-5.84
2023-02-11T21:55:39.815Z,-5.82
2023-02-11T21:58:07.308Z,-5.78
2023-02-11T22:00:35.086Z,-5.75
2023-02-11T22:03:01.952Z,-5.79
2023-02-11T22:05:28.606Z,-5.74
2023-02-11T22:07:55.627Z,-5.75
2023-02-11T22:10:22.781Z,-5.82
2023-02-11T22:12:49.465Z,-5.77
2023-02-11T22:15:16.237Z,-5.75
2023-02-11T22:17:42.985Z,-5.69
2023-02-11T22:20:10.381Z,-5.61
2023-02-11T22:22:37.736Z,-5.61
2023-02-11T22:25:04.832Z,-5.51
2023-02-11T22:27:31.637Z,-5.59
2023-02-11T22:29:58.317Z,-5.57
2023-02-11T22:32:28.434Z,-5.49
2023-02-11T22:34:55.586Z,-5.46
2023-02-11T22:37:22.467Z,-5.49
2023-02-11T22:39:49.305Z,-5.46
2023-02-11T22:42:16.112Z,-5.43
2023-02-11T22:44:42.844Z,-5.41
2023-02-11T22:47:09.622Z,-5.32
2023-02-11T22:49:36.568Z,-5.39
2023-02-11T22:52:03.642Z,-5.48
2023-02-11T22:54:30.409Z,-5.42
2023-02-11T22:56:57.325Z,-5.32
2023-02-11T22:59:24.062Z,-5.39
2023-02-11T23:01:50.933Z,-5.41
2023-02-11T23:04:19.372Z,-5.35
2023-02-11T23:06:47.745Z,-5.34
2023-02-11T23:09:14.710Z,-5.28
2023-02-11T23:11:41.720Z,-5.22
2023-02-11T23:14:10.564Z,-5.16
2023-02-11T23:16:37.376Z,-5.18
2023-02-11T23:19:07.616Z,-5.17
2023-02-11T23:21:37.512Z,-5.14
2023-02-11T23:24:08.382Z,-5.10
2023-02-11T23:26:35.503Z,-5.07
2023-02-11T23:29:02.804Z,-5.11
2023-02-11T23:31:37.675Z,-5.11
2023-02-11T23:34:05.435Z,-5.16
2023-02-11T23:36:33.298Z,-5.14
2023-02-11T23:39:00.502Z,-5.10
2023-02-11T23:41:27.433Z,-5.06
2023-02-11T23:43:57.021Z,-5.13
2023-02-11T23:46:25.557Z,-5.08
2023-02-11T23:48:52.389Z,-5.11
2023-02-11T23:51:19.581Z,-5.03
2023-02-11T23:53:46.640Z,-5.07
2023-02-11T23:56:16.310Z,-5.03
2023-02-11T23:58:45.000Z,-5.10
